Time;durP1;ratioP1;P1;durP2;ratioP2;P2;SDS_P1;SDS_P2;PMS_P1;PMS_P2;Temp;Humidity;BMP_temperature;BMP_pressure;BME280_temperature;BME280_humidity;BME280_pressure;Samples;Min_cycle;Max_cycle;Signal;HPM_P1;HPM_P2
2022/02/26 00:03:00;;;;;;;9.83;8.47;;;4.90;99.90;;;;;;6228275;28;20464;-62
2022/02/26 00:06:03;;;;;;;8.30;7.60;;;4.90;99.90;;;;;;6227550;28;20480;-63
2022/02/26 00:09:07;;;;;;;8.40;7.60;;;4.90;99.90;;;;;;6228811;28;20479;-62
2022/02/26 00:12:13;;;;;;;9.70;8.70;;;4.90;99.90;;;;;;6228842;28;20754;-62
2022/02/26 00:15:18;;;;;;;9.20;8.30;;;4.90;99.90;;;;;;6228043;28;20452;-62
2022/02/26 00:18:21;;;;;;;9.17;8.30;;;4.80;99.90;;;;;;6228411;28;20445;-61
2022/02/26 00:21:24;;;;;;;9.27;8.37;;;4.80;99.90;;;;;;6227753;28;20491;-62
2022/02/26 00:24:27;;;;;;;8.37;7.67;;;4.80;99.90;;;;;;6226294;28;20940;-60
2022/02/26 00:27:31;;;;;;;8.60;7.80;;;4.80;99.90;;;;;;6227767;28;20486;-62
2022/02/26 00:30:36;;;;;;;9.60;7.80;;;4.70;99.90;;;;;;6228312;28;20480;-61
2022/02/26 00:33:39;;;;;;;10.00;8.90;;;4.60;99.90;;;;;;6226848;28;20473;-60
2022/02/26 00:36:43;;;;;;;11.27;10.27;;;4.60;99.90;;;;;;6226967;28;20486;-60
2022/02/26 00:39:46;;;;;;;9.00;8.10;;;4.60;99.90;;;;;;6227336;28;20487;-61
2022/02/26 00:42:49;;;;;;;9.63;8.67;;;4.50;99.90;;;;;;6226593;28;20471;-60
2022/02/26 00:45:54;;;;;;;11.03;9.63;;;4.50;99.90;;;;;;6227380;28;20483;-60
2022/02/26 00:52:20;;;;;;;10.53;9.43;;;4.40;99.90;;;;;;6226148;28;20960;-61
2022/02/26 00:55:24;;;;;;;9.83;8.93;;;4.40;99.90;;;;;;6222006;28;20563;-61
2022/02/26 00:58:27;;;;;;;10.87;9.87;;;4.30;99.90;;;;;;6227283;28;20499;-61
2022/02/26 01:01:32;;;;;;;10.13;9.13;;;4.20;99.90;;;;;;6227490;28;20472;-61
2022/02/26 01:04:36;;;;;;;11.03;9.90;;;4.20;99.90;;;;;;6226855;28;20477;-61
2022/02/26 01:07:40;;;;;;;12.70;10.60;;;4.10;99.90;;;;;;6227061;28;20983;-60
2022/02/26 01:10:43;;;;;;;11.27;10.13;;;4.00;99.90;;;;;;6226086;28;21277;-61
2022/02/26 01:13:46;;;;;;;11.87;10.73;;;4.00;99.90;;;;;;6226206;28;20472;-61
2022/02/26 01:16:50;;;;;;;11.67;10.40;;;3.90;99.90;;;;;;6225836;28;20533;-61
2022/02/26 01:19:53;;;;;;;10.40;9.40;;;3.80;99.90;;;;;;6225626;28;20472;-61
2022/02/26 01:22:57;;;;;;;13.77;11.07;;;3.80;99.90;;;;;;6226194;28;20468;-62
2022/02/26 01:26:00;;;;;;;11.37;10.33;;;3.70;99.90;;;;;;6225874;28;20964;-61
2022/02/26 01:29:07;;;;;;;12.63;11.47;;;3.70;99.90;;;;;;6225887;28;20490;-62
2022/02/26 01:32:12;;;;;;;10.77;9.80;;;3.60;99.90;;;;;;6225630;28;21014;-61
2022/02/26 01:35:16;;;;;;;11.27;10.13;;;3.60;99.90;;;;;;6225878;28;20789;-61
2022/02/26 01:38:19;;;;;;;11.37;10.37;;;3.60;99.90;;;;;;6225294;28;20853;-61
2022/02/26 01:41:23;;;;;;;13.27;11.03;;;3.60;99.90;;;;;;6226444;28;20468;-61
2022/02/26 01:44:27;;;;;;;11.13;10.23;;;3.60;99.90;;;;;;6226073;28;20504;-60
2022/02/26 01:47:32;;;;;;;11.60;10.63;;;3.60;99.90;;;;;;6225838;28;20476;-62
2022/02/26 01:50:35;;;;;;;10.80;9.70;;;3.70;99.90;;;;;;6225813;28;20480;-62
2022/02/26 01:53:40;;;;;;;11.70;10.53;;;3.60;99.90;;;;;;6225588;28;20480;-61
2022/02/26 01:56:43;;;;;;;11.57;10.37;;;3.70;99.90;;;;;;6225424;28;20546;-60
2022/02/26 01:59:46;;;;;;;11.90;10.90;;;3.70;99.90;;;;;;6215771;28;20480;-59
2022/02/26 02:02:53;;;;;;;10.33;9.27;;;3.80;99.90;;;;;;6225263;28;20554;-59
2022/02/26 02:05:58;;;;;;;9.57;8.67;;;3.70;99.90;;;;;;6224979;28;20482;-60
2022/02/26 02:09:01;;;;;;;10.13;9.13;;;3.70;99.90;;;;;;6224823;28;20480;-60
2022/02/26 02:12:06;;;;;;;13.47;9.50;;;3.70;99.90;;;;;;6224820;28;20483;-61
2022/02/26 02:15:10;;;;;;;11.87;10.53;;;3.60;99.90;;;;;;6215840;28;20441;-60
2022/02/26 02:18:16;;;;;;;10.73;9.83;;;3.50;99.90;;;;;;6211730;28;20441;-60
2022/02/26 02:21:19;;;;;;;11.00;9.90;;;3.40;99.90;;;;;;6211331;28;20437;-60
2022/02/26 02:24:24;;;;;;;11.70;9.80;;;3.30;99.90;;;;;;6212719;28;20449;-60
2022/02/26 02:27:27;;;;;;;10.83;9.80;;;3.30;99.90;;;;;;6220224;28;20455;-60
2022/02/26 02:30:31;;;;;;;10.93;9.93;;;3.40;99.90;;;;;;6214636;28;20472;-63
2022/02/26 02:33:39;;;;;;;11.53;10.40;;;3.30;99.90;;;;;;6214927;28;20530;-62
2022/02/26 02:36:43;;;;;;;10.43;9.00;;;3.30;99.90;;;;;;6218160;28;20481;-62
2022/02/26 02:39:47;;;;;;;12.00;10.90;;;3.20;99.90;;;;;;6223974;28;20487;-62
2022/02/26 02:42:51;;;;;;;11.03;10.03;;;3.30;99.90;;;;;;6229700;28;20476;-62
2022/02/26 02:45:55;;;;;;;11.93;9.87;;;3.30;99.90;;;;;;6229758;28;20549;-61
2022/02/26 02:48:58;;;;;;;12.00;10.60;;;3.30;99.90;;;;;;6210378;28;20476;-61
2022/02/26 02:52:01;;;;;;;11.07;10.07;;;3.30;99.90;;;;;;6205704;28;20531;-60
2022/02/26 02:55:07;;;;;;;9.90;8.90;;;3.20;99.90;;;;;;6205296;28;20758;-60
2022/02/26 02:58:11;;;;;;;9.83;8.93;;;3.30;99.90;;;;;;6205062;28;20803;-58
2022/02/26 03:01:14;;;;;;;11.40;9.37;;;3.30;99.90;;;;;;6200484;28;20809;-60
2022/02/26 03:04:17;;;;;;;9.40;8.50;;;3.30;99.90;;;;;;6213211;28;20483;-60
2022/02/26 03:07:20;;;;;;;9.37;8.67;;;3.30;99.90;;;;;;6229577;28;20534;-61
2022/02/26 03:10:25;;;;;;;9.50;8.50;;;3.30;99.90;;;;;;6229027;28;20480;-60
2022/02/26 03:13:29;;;;;;;8.90;8.10;;;3.40;99.90;;;;;;6229270;28;20476;-60
2022/02/26 03:16:32;;;;;;;9.00;8.10;;;3.40;99.90;;;;;;6229110;28;20475;-61
2022/02/26 03:19:35;;;;;;;9.00;7.80;;;3.40;99.90;;;;;;6228598;28;20800;-61
2022/02/26 03:22:39;;;;;;;9.87;8.97;;;3.40;99.90;;;;;;6228576;28;20818;-61
2022/02/26 03:25:44;;;;;;;11.53;10.43;;;3.40;99.90;;;;;;6228839;28;20476;-61
2022/02/26 03:28:47;;;;;;;10.70;9.80;;;3.40;99.90;;;;;;6228477;28;20487;-62
2022/02/26 03:31:50;;;;;;;13.60;11.40;;;3.40;99.90;;;;;;6228509;28;20499;-62
2022/02/26 03:34:54;;;;;;;11.07;10.00;;;3.40;99.90;;;;;;6228773;28;20487;-62
2022/02/26 03:37:57;;;;;;;10.20;9.30;;;3.50;99.90;;;;;;6228596;28;20480;-62
2022/02/26 03:41:02;;;;;;;9.73;8.83;;;3.40;99.90;;;;;;6228180;28;20491;-61
2022/02/26 03:44:05;;;;;;;9.43;8.60;;;3.30;99.90;;;;;;6228265;28;20468;-61
2022/02/26 03:47:12;;;;;;;9.67;8.77;;;3.30;99.90;;;;;;6228149;28;20944;-62
2022/02/26 03:50:15;;;;;;;10.30;8.43;;;3.20;99.90;;;;;;6228133;28;20596;-62
2022/02/26 03:53:18;;;;;;;12.47;8.30;;;3.20;99.90;;;;;;6228446;28;20476;-62
2022/02/26 03:56:23;;;;;;;7.43;6.77;;;3.10;99.90;;;;;;6228349;28;20483;-62
2022/02/26 03:59:26;;;;;;;7.70;7.00;;;3.00;99.90;;;;;;6228368;28;20976;-62
2022/02/26 04:02:29;;;;;;;7.30;6.60;;;3.10;99.90;;;;;;6228357;28;20476;-62
2022/02/26 04:05:32;;;;;;;7.80;6.03;;;3.10;99.90;;;;;;6228559;28;20485;-62
2022/02/26 04:08:35;;;;;;;6.73;5.50;;;3.10;99.60;;;;;;6213106;28;20488;-63
2022/02/26 04:11:40;;;;;;;9.60;6.00;;;3.10;99.50;;;;;;6227803;28;20476;-62
2022/02/26 04:14:43;;;;;;;7.90;6.03;;;3.10;99.30;;;;;;6227632;28;20484;-62
2022/02/26 04:17:46;;;;;;;7.57;6.80;;;3.10;99.00;;;;;;6227750;28;20484;-62
2022/02/26 04:20:50;;;;;;;7.37;6.57;;;3.00;99.00;;;;;;6228521;28;20566;-62
2022/02/26 04:23:54;;;;;;;9.60;6.97;;;3.00;99.00;;;;;;6227028;28;20979;-62
2022/02/26 04:26:59;;;;;;;9.60;8.30;;;3.00;99.00;;;;;;6227210;28;20491;-61
2022/02/26 04:30:03;;;;;;;8.37;7.60;;;2.90;99.20;;;;;;6226861;28;20492;-62
2022/02/26 04:33:15;;;;;;;7.77;6.83;;;2.90;99.30;;;;;;6228465;28;20790;-61
2022/02/26 04:36:19;;;;;;;7.27;6.50;;;2.90;99.20;;;;;;6226975;28;20444;-62
2022/02/26 04:39:22;;;;;;;9.53;6.37;;;3.00;99.10;;;;;;6227146;28;20503;-62
2022/02/26 04:42:27;;;;;;;7.20;5.30;;;2.90;98.90;;;;;;6227307;28;20463;-62
2022/02/26 04:45:30;;;;;;;5.80;5.13;;;2.90;98.90;;;;;;6226523;28;20760;-62
2022/02/26 04:48:34;;;;;;;6.10;5.20;;;2.90;98.60;;;;;;6226825;28;20484;-62
2022/02/26 04:51:37;;;;;;;6.67;5.47;;;3.00;98.30;;;;;;6227755;28;20464;-62
2022/02/26 04:54:40;;;;;;;7.37;5.40;;;2.90;98.10;;;;;;6227040;28;20479;-61
2022/02/26 04:57:45;;;;;;;5.33;4.60;;;2.90;98.10;;;;;;6227306;28;20477;-61
2022/02/26 05:00:48;;;;;;;6.17;4.73;;;2.90;97.70;;;;;;6226623;28;20473;-61
2022/02/26 05:03:51;;;;;;;5.27;4.83;;;2.90;97.40;;;;;;6226668;28;20476;-61
2022/02/26 05:06:54;;;;;;;4.77;4.10;;;2.90;97.20;;;;;;6226472;28;20543;-63
2022/02/26 05:09:58;;;;;;;6.20;3.97;;;2.90;97.10;;;;;;6217718;28;20483;-61
2022/02/26 05:13:02;;;;;;;5.27;4.77;;;2.90;97.10;;;;;;6226676;28;20476;-61
2022/02/26 05:16:06;;;;;;;7.60;5.00;;;2.80;97.00;;;;;;6226524;28;20476;-61
2022/02/26 05:19:09;;;;;;;5.80;5.20;;;2.70;97.20;;;;;;6226345;28;20469;-62
2022/02/26 05:22:13;;;;;;;10.53;5.67;;;2.60;97.30;;;;;;6225983;28;20980;-61
2022/02/26 05:25:16;;;;;;;8.30;5.27;;;2.60;97.40;;;;;;6228932;28;20823;-61
2022/02/26 05:28:21;;;;;;;5.40;4.90;;;2.60;97.40;;;;;;6226632;28;20495;-60
2022/02/26 05:31:24;;;;;;;5.53;5.13;;;2.60;97.40;;;;;;6226950;28;20477;-62
2022/02/26 05:34:27;;;;;;;5.50;5.07;;;2.60;97.60;;;;;;6226585;28;21071;-62
2022/02/26 05:37:31;;;;;;;6.00;5.50;;;2.60;97.70;;;;;;6226706;28;20572;-62
2022/02/26 05:40:34;;;;;;;6.13;5.13;;;2.60;97.70;;;;;;6225308;28;20476;-62
2022/02/26 05:43:38;;;;;;;9.43;4.77;;;2.70;97.70;;;;;;6226424;28;20479;-62
2022/02/26 05:46:41;;;;;;;6.60;4.80;;;2.70;97.70;;;;;;6226222;28;20884;-62
2022/02/26 05:49:45;;;;;;;8.10;4.23;;;2.70;97.60;;;;;;6226400;28;20519;-62
2022/02/26 05:52:48;;;;;;;3.67;3.20;;;2.80;97.40;;;;;;6226175;28;20476;-62
2022/02/26 05:55:52;;;;;;;7.87;5.13;;;2.80;97.10;;;;;;6225968;28;20483;-62
2022/02/26 05:58:56;;;;;;;9.47;5.10;;;2.80;96.20;;;;;;6225162;28;21006;-62
2022/02/26 06:01:59;;;;;;;6.97;4.57;;;2.80;95.20;;;;;;6225525;28;20468;-62
2022/02/26 06:05:02;;;;;;;7.93;5.77;;;2.80;94.40;;;;;;6225247;28;20980;-62
2022/02/26 06:08:06;;;;;;;5.57;4.80;;;2.80;94.00;;;;;;6225655;28;20480;-62
2022/02/26 06:11:09;;;;;;;9.60;6.10;;;2.80;93.90;;;;;;6225674;28;20476;-62
2022/02/26 06:14:14;;;;;;;6.77;4.10;;;2.90;93.70;;;;;;6225370;28;20479;-61
2022/02/26 06:17:17;;;;;;;6.53;4.53;;;2.90;93.40;;;;;;6226068;28;20786;-61
2022/02/26 06:20:20;;;;;;;8.13;3.70;;;3.00;93.00;;;;;;6226043;28;20480;-61
2022/02/26 06:23:23;;;;;;;4.30;3.17;;;3.10;92.60;;;;;;6225538;28;20476;-61
2022/02/26 06:26:26;;;;;;;3.60;2.83;;;3.20;92.20;;;;;;6225373;28;20480;-61
2022/02/26 06:29:31;;;;;;;8.37;2.70;;;3.30;91.60;;;;;;6225219;28;20487;-61
2022/02/26 06:32:35;;;;;;;2.77;2.40;;;3.40;91.30;;;;;;6224887;28;20845;-62
2022/02/26 06:35:38;;;;;;;3.47;2.43;;;3.40;91.10;;;;;;6225454;28;20475;-61
2022/02/26 06:38:41;;;;;;;3.50;2.40;;;3.50;90.80;;;;;;6224925;28;20818;-62
2022/02/26 06:41:48;;;;;;;3.03;1.97;;;3.60;90.10;;;;;;6225209;28;20964;-59
2022/02/26 06:44:53;;;;;;;4.10;2.20;;;3.70;89.70;;;;;;6225112;28;20994;-62
2022/02/26 06:47:56;;;;;;;2.20;2.00;;;3.80;89.10;;;;;;6224939;28;20493;-60
2022/02/26 06:50:59;;;;;;;3.10;2.10;;;3.80;88.50;;;;;;6225296;28;20480;-59
2022/02/26 06:54:03;;;;;;;2.97;2.03;;;3.80;87.40;;;;;;6225337;28;20804;-61
2022/02/26 06:57:07;;;;;;;5.73;3.00;;;3.70;87.40;;;;;;6224765;28;20445;-63
2022/02/26 07:00:14;;;;;;;5.07;2.50;;;3.70;87.90;;;;;;6225542;28;20487;-62
2022/02/26 07:03:17;;;;;;;10.93;5.20;;;3.70;88.10;;;;;;6225274;28;20429;-62
2022/02/26 07:06:20;;;;;;;3.50;2.70;;;3.70;87.90;;;;;;6225416;28;20448;-61
2022/02/26 07:09:23;;;;;;;8.03;3.10;;;3.70;88.10;;;;;;6229175;28;20784;-61
2022/02/26 07:12:26;;;;;;;3.27;2.33;;;3.70;87.60;;;;;;6229220;28;20789;-60
2022/02/26 07:15:31;;;;;;;4.70;3.07;;;3.70;87.80;;;;;;6224594;28;20502;-59
2022/02/26 07:18:35;;;;;;;8.23;4.17;;;3.70;88.00;;;;;;6228689;28;20778;-62
2022/02/26 07:21:39;;;;;;;7.20;6.60;;;3.80;88.50;;;;;;6228802;28;20879;-61
2022/02/26 07:24:43;;;;;;;8.00;4.47;;;3.90;88.60;;;;;;6228911;28;20472;-59
2022/02/26 07:27:46;;;;;;;8.17;4.43;;;4.00;88.20;;;;;;6228938;28;20538;-59
2022/02/26 07:30:52;;;;;;;6.77;6.13;;;4.20;87.50;;;;;;6228794;28;20471;-59
2022/02/26 07:33:56;;;;;;;9.30;7.63;;;4.20;86.90;;;;;;6229044;28;20487;-60
2022/02/26 07:36:59;;;;;;;6.90;5.27;;;4.10;87.00;;;;;;6228892;28;20468;-59
2022/02/26 07:40:04;;;;;;;5.20;4.70;;;4.20;87.30;;;;;;6230878;28;20472;-61
2022/02/26 07:43:07;;;;;;;8.20;5.10;;;4.20;87.80;;;;;;6228742;28;20960;-61
2022/02/26 07:46:12;;;;;;;7.37;5.20;;;4.20;87.90;;;;;;6228570;28;20475;-61
2022/02/26 07:49:15;;;;;;;8.30;4.67;;;4.30;88.10;;;;;;6228045;28;20503;-61
2022/02/26 07:52:18;;;;;;;10.87;4.93;;;4.40;87.80;;;;;;6228492;28;20472;-61
2022/02/26 07:55:23;;;;;;;7.67;5.33;;;4.50;87.80;;;;;;6228368;28;20490;-62
2022/02/26 07:58:27;;;;;;;9.40;5.13;;;4.60;88.30;;;;;;6228280;28;20488;-61
2022/02/26 08:01:31;;;;;;;9.67;6.67;;;4.60;88.70;;;;;;6228132;28;20497;-62
2022/02/26 08:04:37;;;;;;;12.83;5.60;;;4.60;88.90;;;;;;6228492;28;20531;-61
2022/02/26 08:07:40;;;;;;;5.90;4.60;;;4.70;88.70;;;;;;6218978;28;20476;-62
2022/02/26 08:10:43;;;;;;;4.83;4.33;;;4.80;88.70;;;;;;6216392;28;20970;-62
2022/02/26 08:13:46;;;;;;;7.47;5.10;;;4.90;88.70;;;;;;6216340;28;20961;-62
2022/02/26 08:16:51;;;;;;;6.43;5.47;;;5.10;88.90;;;;;;6210423;28;20476;-62
2022/02/26 08:19:55;;;;;;;8.07;5.50;;;5.40;88.90;;;;;;6214602;28;20481;-62
2022/02/26 08:22:58;;;;;;;6.63;5.30;;;5.60;89.10;;;;;;6211719;28;20988;-62
2022/02/26 08:26:01;;;;;;;8.40;5.00;;;5.90;87.90;;;;;;6213307;28;20480;-62
2022/02/26 08:29:04;;;;;;;11.83;5.60;;;6.20;87.20;;;;;;6214899;28;20488;-62
2022/02/26 08:32:09;;;;;;;10.00;5.90;;;6.60;85.60;;;;;;6215813;28;20477;-60
2022/02/26 08:35:14;;;;;;;5.53;4.50;;;7.30;86.70;;;;;;6213397;28;20472;-60
2022/02/26 08:38:17;;;;;;;6.70;4.87;;;10.70;79.60;;;;;;6214483;28;20509;-60
2022/02/26 08:41:20;;;;;;;6.60;4.13;;;15.10;58.20;;;;;;6214048;28;20481;-60
2022/02/26 08:44:23;;;;;;;6.67;4.60;;;18.10;45.80;;;;;;6214050;28;20472;-61
2022/02/26 08:47:29;;;;;;;5.90;4.00;;;20.40;38.50;;;;;;6212662;28;20472;-61
2022/02/26 08:50:32;;;;;;;4.73;3.37;;;21.60;33.80;;;;;;6212543;28;20253;-60
2022/02/26 08:53:35;;;;;;;3.63;3.33;;;22.80;29.40;;;;;;6214818;28;20230;-60
2022/02/26 08:56:38;;;;;;;6.50;3.57;;;24.70;28.50;;;;;;6213597;28;20229;-63
2022/02/26 08:59:42;;;;;;;3.30;3.00;;;27.20;25.90;;;;;;6213251;28;20237;-63
2022/02/26 09:02:46;;;;;;;3.37;3.07;;;28.40;22.50;;;;;;6214355;28;20563;-63
2022/02/26 09:05:51;;;;;;;1.23;1.10;;;29.50;21.00;;;;;;6212464;28;20307;-63
2022/02/26 09:08:54;;;;;;;1.00;0.60;;;28.40;19.50;;;;;;6214935;28;20233;-62
2022/02/26 09:11:57;;;;;;;1.00;0.80;;;26.00;20.70;;;;;;6213235;28;20228;-62
2022/02/26 09:15:00;;;;;;;2.43;0.77;;;25.20;21.70;;;;;;6213796;28;20228;-64
2022/02/26 09:18:05;;;;;;;0.90;0.70;;;26.20;20.90;;;;;;6212167;28;20299;-62
2022/02/26 09:21:09;;;;;;;1.20;1.10;;;26.60;20.60;;;;;;6201970;28;20248;-63
2022/02/26 09:24:12;;;;;;;1.70;0.80;;;25.40;20.20;;;;;;6214183;28;20206;-62
2022/02/26 09:27:15;;;;;;;1.33;0.90;;;23.00;21.00;;;;;;6202199;28;20250;-62
2022/02/26 09:30:18;;;;;;;1.00;0.70;;;20.80;22.80;;;;;;6201694;28;20233;-62
2022/02/26 09:33:23;;;;;;;2.40;1.57;;;21.10;23.50;;;;;;6201560;28;20232;-63
2022/02/26 09:36:26;;;;;;;1.10;0.87;;;24.20;22.30;;;;;;6201451;28;20209;-62
2022/02/26 09:39:29;;;;;;;2.33;2.13;;;27.90;21.10;;;;;;6201360;28;20649;-63
2022/02/26 09:42:33;;;;;;;1.30;0.80;;;30.80;19.30;;;;;;6201359;28;20379;-63
2022/02/26 09:45:36;;;;;;;2.07;1.17;;;32.10;17.30;;;;;;6201700;28;20567;-64
2022/02/26 09:48:41;;;;;;;1.97;0.80;;;31.30;16.30;;;;;;6218303;28;20550;-63
2022/02/26 09:51:45;;;;;;;1.20;0.57;;;28.80;17.00;;;;;;6225871;28;20274;-64
2022/02/26 09:54:49;;;;;;;1.27;0.50;;;26.80;18.10;;;;;;6226542;28;20228;-66
2022/02/26 09:57:52;;;;;;;0.90;0.50;;;26.00;18.60;;;;;;6225767;28;20235;-65
2022/02/26 10:00:58;;;;;;;1.20;0.47;;;25.90;18.70;;;;;;6226035;28;20257;-64
2022/02/26 10:04:11;;;;;;;3.40;0.50;;;26.40;18.80;;;;;;6225556;28;20665;-64
2022/02/26 10:07:17;;;;;;;0.80;0.47;;;25.20;18.80;;;;;;6225793;28;20251;-65
2022/02/26 10:10:23;;;;;;;0.80;0.40;;;25.20;19.60;;;;;;6225302;28;20232;-64
2022/02/26 10:13:27;;;;;;;1.37;0.50;;;27.30;18.60;;;;;;6225265;28;20287;-64
2022/02/26 10:16:51;;;;;;;0.90;0.47;;;27.80;17.50;;;;;;6225085;28;20688;-63
2022/02/26 10:20:08;;;;;;;1.87;0.60;;;25.70;17.40;;;;;;6225205;28;20233;-65
2022/02/26 10:23:14;;;;;;;3.37;0.50;;;23.00;19.10;;;;;;6224919;28;20252;-65
2022/02/26 10:26:25;;;;;;;1.27;0.50;;;20.80;20.50;;;;;;6225308;28;20237;-63
2022/02/26 10:29:29;;;;;;;0.70;0.40;;;19.30;21.30;;;;;;6224827;28;20244;-63
2022/02/26 10:32:32;;;;;;;0.90;0.60;;;19.10;22.90;;;;;;6224941;28;20239;-63
2022/02/26 10:35:43;;;;;;;0.87;0.50;;;19.10;22.30;;;;;;6225068;28;20278;-63
2022/02/26 10:38:46;;;;;;;1.47;0.57;;;19.40;22.90;;;;;;6223213;28;20245;-63
2022/02/26 10:41:49;;;;;;;1.37;0.80;;;21.80;20.80;;;;;;6224395;28;20229;-63
2022/02/26 10:45:06;;;;;;;0.97;0.50;;;21.60;20.80;;;;;;6228069;28;20229;-64
2022/02/26 10:48:10;;;;;;;3.30;0.70;;;24.40;20.30;;;;;;6227597;28;20691;-63
2022/02/26 10:51:17;;;;;;;0.80;0.50;;;25.20;18.50;;;;;;6228653;28;20209;-63
2022/02/26 10:54:24;;;;;;;3.43;0.50;;;25.30;19.20;;;;;;6229079;28;20539;-65
2022/02/26 10:57:32;;;;;;;3.07;0.77;;;26.00;17.80;;;;;;6229842;28;20212;-63
2022/02/26 11:00:40;;;;;;;1.10;0.73;;;23.60;18.60;;;;;;6229129;28;20556;-63
2022/02/26 11:03:45;;;;;;;1.80;1.00;;;21.80;19.80;;;;;;6228587;28;20623;-63
2022/02/26 11:06:49;;;;;;;2.33;2.13;;;21.40;20.00;;;;;;6228974;28;20283;-63
2022/02/26 11:09:53;;;;;;;1.37;1.27;;;20.30;20.70;;;;;;6229308;28;20229;-63
2022/02/26 11:12:56;;;;;;;2.83;2.53;;;20.40;20.70;;;;;;6228979;28;20224;-64
2022/02/26 11:16:02;;;;;;;1.20;1.07;;;21.00;21.50;;;;;;6229245;28;20232;-63
2022/02/26 11:19:08;;;;;;;0.90;0.80;;;24.80;19.50;;;;;;6228890;28;20236;-65
2022/02/26 11:22:13;;;;;;;0.70;0.40;;;28.40;16.90;;;;;;6229360;28;20228;-65
2022/02/26 11:25:18;;;;;;;0.93;0.73;;;30.70;15.40;;;;;;6229039;28;20240;-65
2022/02/26 11:28:21;;;;;;;1.08;0.82;;;33.60;14.40;;;;;;6228533;28;20243;-65
2022/02/26 11:31:28;;;;;;;0.90;0.50;;;36.20;13.60;;;;;;6228276;28;20235;-62
2022/02/26 11:34:32;;;;;;;1.05;0.52;;;35.10;12.10;;;;;;6228273;28;20245;-62
2022/02/26 11:37:39;;;;;;;1.97;0.80;;;31.10;13.50;;;;;;6228420;28;20294;-64
2022/02/26 11:40:42;;;;;;;3.10;0.90;;;27.20;15.40;;;;;;6227865;28;20235;-63
2022/02/26 11:43:47;;;;;;;1.40;0.63;;;25.70;17.00;;;;;;6228391;28;20314;-63
2022/02/26 11:46:50;;;;;;;1.20;0.70;;;24.30;17.40;;;;;;6228089;28;20229;-61
2022/02/26 11:49:58;;;;;;;1.73;0.50;;;22.30;18.50;;;;;;6228259;28;20547;-61
2022/02/26 11:53:08;;;;;;;2.10;0.50;;;20.90;19.60;;;;;;6227997;28;20229;-62
2022/02/26 11:56:12;;;;;;;2.20;0.93;;;19.80;20.20;;;;;;6228135;28;20236;-63
2022/02/26 11:59:15;;;;;;;1.80;0.60;;;18.60;21.00;;;;;;6227891;28;20569;-60
2022/02/26 12:02:18;;;;;;;0.73;0.70;;;17.40;22.30;;;;;;6228697;28;20233;-62
2022/02/26 12:05:24;;;;;;;1.47;0.60;;;16.10;23.20;;;;;;6228366;28;20479;-63
2022/02/26 12:08:40;;;;;;;0.93;0.70;;;15.10;24.50;;;;;;6228084;28;20479;-63
2022/02/26 12:11:46;;;;;;;0.60;0.60;;;14.70;25.20;;;;;;6227778;28;20484;-63
2022/02/26 12:14:57;;;;;;;0.90;0.67;;;14.20;25.80;;;;;;6228113;28;20862;-63
2022/02/26 12:18:22;;;;;;;0.63;0.60;;;13.90;26.50;;;;;;6227840;28;20468;-63
2022/02/26 12:21:30;;;;;;;0.87;0.80;;;13.80;26.90;;;;;;6227606;28;20465;-63
2022/02/26 12:24:48;;;;;;;0.90;0.60;;;13.60;26.90;;;;;;6227604;28;20478;-62
2022/02/26 12:27:59;;;;;;;0.80;0.50;;;13.40;27.30;;;;;;6227320;28;20483;-63
2022/02/26 12:31:06;;;;;;;0.70;0.50;;;14.50;27.60;;;;;;6209626;28;21023;-61
2022/02/26 12:34:12;;;;;;;0.60;0.40;;;18.10;24.80;;;;;;6194118;28;20473;-63
2022/02/26 12:37:20;;;;;;;0.80;0.50;;;20.70;22.00;;;;;;6201035;28;20465;-61
2022/02/26 12:40:30;;;;;;;0.70;0.50;;;19.30;21.80;;;;;;6201079;28;20242;-62
2022/02/26 12:43:33;;;;;;;0.60;0.50;;;17.20;23.50;;;;;;6200999;28;20542;-62
2022/02/26 12:46:40;;;;;;;0.97;0.87;;;16.40;24.80;;;;;;6202538;28;20534;-62
2022/02/26 12:49:44;;;;;;;1.00;0.57;;;16.10;25.10;;;;;;6225253;28;20488;-62
2022/02/26 12:52:47;;;;;;;1.00;0.60;;;14.90;25.70;;;;;;6226696;28;20874;-61
2022/02/26 12:55:52;;;;;;;1.20;0.70;;;14.00;26.50;;;;;;6226905;28;20476;-63
2022/02/26 12:59:10;;;;;;;0.63;0.57;;;13.30;27.50;;;;;;6226921;28;20994;-61
2022/02/26 13:02:14;;;;;;;1.27;0.70;;;13.00;28.30;;;;;;6226903;28;20483;-62
2022/02/26 13:05:17;;;;;;;1.10;1.00;;;12.60;28.70;;;;;;6225828;28;20475;-62
2022/02/26 13:08:21;;;;;;;1.03;0.80;;;12.30;28.90;;;;;;6226971;28;20483;-61
2022/02/26 13:11:25;;;;;;;0.83;0.83;;;12.00;29.30;;;;;;6226701;28;20474;-63
2022/02/26 13:14:28;;;;;;;1.73;0.80;;;11.80;29.40;;;;;;6226461;28;20829;-62
2022/02/26 13:17:33;;;;;;;1.07;0.80;;;11.60;29.60;;;;;;6226572;28;20977;-61
2022/02/26 13:20:39;;;;;;;0.90;0.60;;;11.40;29.80;;;;;;6226012;28;21234;-62
2022/02/26 13:23:50;;;;;;;1.37;0.80;;;13.40;29.40;;;;;;6225961;28;20479;-62
2022/02/26 13:26:55;;;;;;;1.37;0.80;;;15.90;26.80;;;;;;6225662;28;20933;-63
2022/02/26 13:29:59;;;;;;;0.57;0.50;;;17.30;24.50;;;;;;6225968;28;20487;-62
2022/02/26 13:33:03;;;;;;;0.80;0.50;;;18.30;24.80;;;;;;6225668;28;20483;-62
2022/02/26 13:36:12;;;;;;;1.07;0.63;;;20.70;22.50;;;;;;6225832;28;20472;-62
2022/02/26 13:39:16;;;;;;;0.73;0.53;;;23.70;19.60;;;;;;6225275;28;20256;-63
2022/02/26 13:42:26;;;;;;;1.57;0.73;;;26.20;18.20;;;;;;6225742;28;20236;-63
2022/02/26 13:45:32;;;;;;;0.73;0.63;;;28.20;16.90;;;;;;6226089;28;20232;-64
2022/02/26 13:48:43;;;;;;;1.43;0.70;;;29.70;15.20;;;;;;6225492;28;20294;-64
2022/02/26 13:51:48;;;;;;;0.70;0.57;;;30.30;14.70;;;;;;6225728;28;20614;-64
2022/02/26 13:54:52;;;;;;;1.20;0.60;;;28.20;15.00;;;;;;6225645;28;20228;-64
2022/02/26 13:57:57;;;;;;;0.80;0.60;;;25.70;16.20;;;;;;6225709;28;20295;-65
2022/02/26 14:01:06;;;;;;;3.03;0.80;;;23.80;17.40;;;;;;6225190;28;20286;-64
2022/02/26 14:04:20;;;;;;;1.40;0.70;;;21.40;18.80;;;;;;6225241;28;20236;-63
2022/02/26 14:07:34;;;;;;;1.60;0.80;;;19.10;20.00;;;;;;6225415;28;20233;-65
2022/02/26 14:10:38;;;;;;;0.77;0.60;;;18.10;21.50;;;;;;6225358;28;20709;-67
2022/02/26 14:13:47;;;;;;;2.27;0.70;;;17.00;21.90;;;;;;6225535;28;20495;-64
2022/02/26 14:16:50;;;;;;;0.83;0.70;;;16.30;22.60;;;;;;6227484;28;20468;-63
2022/02/26 14:19:56;;;;;;;0.80;0.63;;;15.60;23.60;;;;;;6230431;28;20484;-63
2022/02/26 14:23:01;;;;;;;0.80;0.70;;;15.00;24.10;;;;;;6230316;28;20483;-62
2022/02/26 14:26:07;;;;;;;2.70;0.80;;;14.50;24.90;;;;;;6230373;28;20537;-63
2022/02/26 14:29:11;;;;;;;1.60;1.10;;;14.10;25.40;;;;;;6229838;28;20479;-62
2022/02/26 14:32:17;;;;;;;1.33;1.03;;;13.60;26.20;;;;;;6229846;28;20508;-61
2022/02/26 14:35:23;;;;;;;0.93;0.70;;;13.40;27.00;;;;;;6229873;28;20491;-64
2022/02/26 14:38:26;;;;;;;1.60;0.97;;;13.00;26.30;;;;;;6230272;28;20483;-65
2022/02/26 14:41:29;;;;;;;2.00;1.07;;;12.60;26.80;;;;;;6231445;28;20479;-65
2022/02/26 14:44:35;;;;;;;2.03;1.50;;;12.20;27.40;;;;;;6225757;28;20475;-63
2022/02/26 14:47:39;;;;;;;1.30;1.00;;;11.90;27.80;;;;;;6229477;28;20475;-62
2022/02/26 14:50:42;;;;;;;1.03;0.90;;;11.70;28.20;;;;;;6229416;28;20501;-61
2022/02/26 14:53:45;;;;;;;2.37;1.67;;;11.60;28.50;;;;;;6229693;28;20478;-62
2022/02/26 14:56:49;;;;;;;1.57;0.97;;;11.50;29.20;;;;;;6229593;28;20490;-62
2022/02/26 14:59:54;;;;;;;1.47;1.00;;;11.30;29.10;;;;;;6229102;28;20493;-63
2022/02/26 15:02:57;;;;;;;1.60;1.23;;;11.10;29.30;;;;;;6229079;28;20477;-64
2022/02/26 15:06:00;;;;;;;2.40;1.10;;;10.90;29.80;;;;;;6229659;28;20528;-63
2022/02/26 15:09:04;;;;;;;1.33;1.10;;;10.70;30.20;;;;;;6229352;28;20478;-63
2022/02/26 15:12:08;;;;;;;1.30;0.97;;;10.60;30.50;;;;;;6229135;28;20483;-62
2022/02/26 15:15:13;;;;;;;1.40;1.07;;;10.50;30.80;;;;;;6228682;28;20463;-61
2022/02/26 15:18:24;;;;;;;0.90;0.90;;;10.30;31.20;;;;;;6228973;28;20432;-62
2022/02/26 15:21:27;;;;;;;2.17;1.10;;;10.30;31.70;;;;;;6229399;28;20443;-60
2022/02/26 15:24:31;;;;;;;1.50;1.07;;;10.30;32.00;;;;;;6228854;28;20460;-60
2022/02/26 15:27:34;;;;;;;2.00;1.00;;;10.20;32.10;;;;;;6228593;28;20467;-61
2022/02/26 15:30:38;;;;;;;2.90;1.33;;;10.00;32.30;;;;;;6230536;28;20483;-63
2022/02/26 15:33:43;;;;;;;1.50;1.17;;;10.00;32.90;;;;;;6230167;28;20946;-63
2022/02/26 15:36:46;;;;;;;1.20;1.10;;;10.00;32.90;;;;;;6229056;28;20471;-62
2022/02/26 15:39:53;;;;;;;1.40;1.30;;;10.00;33.00;;;;;;6229128;28;20475;-63
2022/02/26 15:42:56;;;;;;;1.30;1.20;;;9.90;34.20;;;;;;6228487;28;20490;-63
2022/02/26 15:46:01;;;;;;;1.40;1.07;;;9.90;34.30;;;;;;6219090;28;20482;-63
2022/02/26 15:49:06;;;;;;;1.87;1.43;;;9.70;34.60;;;;;;6228497;28;20565;-63
2022/02/26 15:52:09;;;;;;;4.43;3.97;;;9.60;34.80;;;;;;6229019;28;20479;-63
2022/02/26 15:55:12;;;;;;;1.20;1.10;;;9.50;34.90;;;;;;6227006;28;20591;-63
2022/02/26 15:58:16;;;;;;;6.50;5.83;;;9.30;35.00;;;;;;6226823;28;20474;-63
2022/02/26 16:01:20;;;;;;;2.27;1.50;;;9.10;35.80;;;;;;6227789;28;20486;-63
2022/02/26 16:04:24;;;;;;;3.10;1.20;;;9.10;38.40;;;;;;6228133;28;20481;-63
2022/02/26 16:07:27;;;;;;;1.20;1.10;;;9.00;38.00;;;;;;6226929;28;20482;-63
2022/02/26 16:10:30;;;;;;;1.93;1.23;;;8.90;38.80;;;;;;6227654;28;20475;-61